createdAt,value
2023-03-27T00:01:18.487Z,16.50
2023-03-27T00:03:49.564Z,16.36
2023-03-27T00:06:17.943Z,16.40
2023-03-27T00:08:46.919Z,16.32
2023-03-27T00:11:15.002Z,16.28
2023-03-27T00:13:49.353Z,16.40
2023-03-27T00:16:19.032Z,16.33
2023-03-27T00:18:46.820Z,16.30
2023-03-27T00:21:14.220Z,16.29
2023-03-27T00:23:42.466Z,16.18
2023-03-27T00:26:10.067Z,16.17
2023-03-27T00:28:37.119Z,16.14
2023-03-27T00:31:04.195Z,16.17
2023-03-27T00:33:31.237Z,16.07
2023-03-27T00:35:58.174Z,16.16
2023-03-27T00:38:24.973Z,16.04
2023-03-27T00:40:54.730Z,16.13
2023-03-27T00:43:34.353Z,16.12
2023-03-27T00:46:15.504Z,16.07
2023-03-27T00:48:47.263Z,16.01
2023-03-27T00:51:16.731Z,15.90
2023-03-27T00:53:45.281Z,15.98
2023-03-27T00:56:13.416Z,16.00
2023-03-27T00:58:44.838Z,15.94
2023-03-27T01:01:15.250Z,15.99
2023-03-27T01:03:45.548Z,16.04
2023-03-27T01:06:14.864Z,16.03
2023-03-27T01:08:43.939Z,15.98
2023-03-27T01:11:26.907Z,15.90
2023-03-27T01:14:30.515Z,15.96
2023-03-27T01:17:13.969Z,15.83
2023-03-27T01:19:55.955Z,15.76
2023-03-27T01:22:52.685Z,15.76
2023-03-27T01:25:37.953Z,15.60
2023-03-27T01:28:10.739Z,15.57
2023-03-27T01:30:44.952Z,15.64
2023-03-27T01:33:33.193Z,15.55
2023-03-27T01:36:19.826Z,15.46
2023-03-27T01:39:17.768Z,15.59
2023-03-27T01:42:03.950Z,15.55
2023-03-27T01:44:47.288Z,15.56
2023-03-27T01:47:31.275Z,15.52
2023-03-27T01:50:06.622Z,15.55
2023-03-27T01:52:38.425Z,15.50
2023-03-27T01:55:09.870Z,15.54
2023-03-27T01:57:49.694Z,15.48
2023-03-27T02:00:22.630Z,15.46
2023-03-27T02:03:09.359Z,15.38
2023-03-27T02:05:44.841Z,15.43
2023-03-27T02:08:17.346Z,15.32
2023-03-27T02:10:50.031Z,15.23
2023-03-27T02:13:21.653Z,14.98
2023-03-27T02:15:51.610Z,14.85
2023-03-27T02:18:26.424Z,14.87
2023-03-27T02:20:53.661Z,14.82
2023-03-27T02:23:23.068Z,14.88
2023-03-27T02:25:51.451Z,14.91
2023-03-27T02:28:49.248Z,14.82
2023-03-27T02:31:35.164Z,14.80
2023-03-27T02:34:21.249Z,14.78
2023-03-27T02:37:19.323Z,14.88
2023-03-27T02:40:31.044Z,14.77
2023-03-27T02:43:17.671Z,14.76
2023-03-27T02:46:00.832Z,14.82
2023-03-27T02:48:35.411Z,14.84
2023-03-27T02:51:13.258Z,14.81
2023-03-27T02:53:46.814Z,14.79
2023-03-27T02:56:16.456Z,14.82
2023-03-27T02:58:50.185Z,14.81
2023-03-27T03:01:39.316Z,14.75
2023-03-27T03:04:34.380Z,14.77
2023-03-27T03:07:18.707Z,14.85
2023-03-27T03:09:45.955Z,14.92
2023-03-27T03:12:12.836Z,15.00
2023-03-27T03:14:46.620Z,14.87
2023-03-27T03:17:16.082Z,14.95
2023-03-27T03:19:42.883Z,14.90
2023-03-27T03:22:10.024Z,14.66
2023-03-27T03:24:41.993Z,14.66
2023-03-27T03:27:10.866Z,14.64
2023-03-27T03:29:57.878Z,14.56
2023-03-27T03:32:27.962Z,14.72
2023-03-27T03:34:57.031Z,14.75
2023-03-27T03:37:28.739Z,14.78
2023-03-27T03:39:58.132Z,14.75
2023-03-27T03:42:24.898Z,14.67
2023-03-27T03:44:52.914Z,14.63
2023-03-27T03:47:21.945Z,14.68
2023-03-27T03:49:49.389Z,14.75
2023-03-27T03:52:16.308Z,14.76
2023-03-27T03:54:44.310Z,14.60
2023-03-27T03:57:12.620Z,14.70
2023-03-27T03:59:39.889Z,14.71
2023-03-27T04:02:30.186Z,14.61
2023-03-27T04:05:09.398Z,14.71
2023-03-27T04:07:40.084Z,14.70
2023-03-27T04:10:30.264Z,14.63
2023-03-27T04:12:59.516Z,14.61
2023-03-27T04:15:29.365Z,14.62
2023-03-27T04:18:33.178Z,14.46
2023-03-27T04:21:04.153Z,14.55
2023-03-27T04:23:30.992Z,14.57
2023-03-27T04:26:00.473Z,14.54
2023-03-27T04:28:37.276Z,14.53
2023-03-27T04:31:23.721Z,14.52
2023-03-27T04:34:25.755Z,14.43
2023-03-27T04:37:10.797Z,14.52
2023-03-27T04:39:46.408Z,14.49
2023-03-27T04:42:16.715Z,14.36
2023-03-27T04:44:46.087Z,14.36
2023-03-27T04:47:13.055Z,14.29
2023-03-27T04:49:46.851Z,14.27
2023-03-27T04:52:26.239Z,14.18
2023-03-27T04:54:53.156Z,14.20
2023-03-27T04:57:22.516Z,14.10
2023-03-27T04:59:50.337Z,14.06
2023-03-27T05:02:35.577Z,13.93
2023-03-27T05:05:21.114Z,13.84
2023-03-27T05:07:50.195Z,13.86
2023-03-27T05:10:21.758Z,13.69
2023-03-27T05:12:52.655Z,13.69
2023-03-27T05:15:21.140Z,13.55
2023-03-27T05:17:55.071Z,13.53
2023-03-27T05:20:25.361Z,13.36
2023-03-27T05:22:56.552Z,13.33
2023-03-27T05:25:29.068Z,13.28
2023-03-27T05:27:57.077Z,13.35
2023-03-27T05:30:29.055Z,13.36
2023-03-27T05:33:17.616Z,13.24
2023-03-27T05:35:48.264Z,13.10
2023-03-27T05:38:15.987Z,13.14
2023-03-27T05:41:04.044Z,13.04
2023-03-27T05:43:34.134Z,12.93
2023-03-27T05:46:01.638Z,13.13
2023-03-27T05:48:28.973Z,13.09
2023-03-27T05:51:00.784Z,13.15
2023-03-27T05:53:27.722Z,13.09
2023-03-27T05:56:14.034Z,13.23
2023-03-27T05:58:56.759Z,13.19
2023-03-27T06:01:25.886Z,13.28
2023-03-27T06:03:56.244Z,13.48
2023-03-27T06:06:35.693Z,13.57
2023-03-27T06:09:03.797Z,13.72
2023-03-27T06:11:30.856Z,13.89
2023-03-27T06:13:58.805Z,14.03
2023-03-27T06:16:40.874Z,14.17
2023-03-27T06:19:26.174Z,14.16
2023-03-27T06:21:53.204Z,14.20
2023-03-27T06:24:20.064Z,14.20
2023-03-27T06:26:47.466Z,14.30
2023-03-27T06:29:14.244Z,14.27
2023-03-27T06:31:46.760Z,14.29
2023-03-27T06:34:24.569Z,14.53
2023-03-27T06:36:56.212Z,14.43
2023-03-27T06:39:23.124Z,14.52
2023-03-27T06:41:52.150Z,14.49
2023-03-27T06:44:34.643Z,14.39
2023-03-27T06:47:24.224Z,14.26
2023-03-27T06:50:18.211Z,14.44
2023-03-27T06:52:45.489Z,14.57
2023-03-27T06:55:41.754Z,14.50
2023-03-27T06:58:09.082Z,14.42
2023-03-27T07:00:37.429Z,14.54
2023-03-27T07:03:21.417Z,14.71
2023-03-27T07:06:11.610Z,14.91
2023-03-27T07:08:47.724Z,14.87
2023-03-27T07:11:16.017Z,14.86
2023-03-27T07:13:54.345Z,14.97
2023-03-27T07:16:25.527Z,15.14
2023-03-27T07:18:52.561Z,15.31
2023-03-27T07:21:20.899Z,15.55
2023-03-27T07:23:47.735Z,15.56
2023-03-27T07:26:19.386Z,15.69
2023-03-27T07:29:01.046Z,15.85
2023-03-27T07:31:50.956Z,15.99
2023-03-27T07:34:16.089Z,16.12
2023-03-27T07:37:16.089Z,16.26
2023-03-27T07:40:08.970Z,16.28
2023-03-27T07:42:39.577Z,16.26
2023-03-27T07:45:16.406Z,16.24
2023-03-27T07:47:46.117Z,16.07
2023-03-27T07:50:15.762Z,16.13
2023-03-27T07:52:46.103Z,16.30
2023-03-27T07:55:17.425Z,16.34
2023-03-27T07:58:01.720Z,16.21
2023-03-27T08:00:35.293Z,16.54
2023-03-27T08:03:14.462Z,16.78
2023-03-27T08:05:59.064Z,16.67
2023-03-27T08:08:29.026Z,16.48
2023-03-27T08:10:59.637Z,16.61
2023-03-27T08:13:32.174Z,16.69
2023-03-27T08:16:17.612Z,16.81
2023-03-27T08:18:46.898Z,16.88
2023-03-27T08:21:14.497Z,17.02
2023-03-27T08:23:41.606Z,17.34
2023-03-27T08:26:09.232Z,17.60
2023-03-27T08:28:47.981Z,17.78
2023-03-27T08:31:16.313Z,17.97
2023-03-27T08:33:44.666Z,18.03
2023-03-27T08:36:20.041Z,17.93
2023-03-27T08:38:47.065Z,18.15
2023-03-27T08:41:30.740Z,18.32
2023-03-27T08:44:15.803Z,18.49
2023-03-27T08:46:46.856Z,18.65
2023-03-27T08:49:18.486Z,18.72
2023-03-27T08:52:16.505Z,18.54
2023-03-27T08:55:09.788Z,18.57
2023-03-27T08:57:43.886Z,18.55
2023-03-27T09:00:25.212Z,18.55
2023-03-27T09:03:21.242Z,18.57
2023-03-27T09:05:57.808Z,18.67
2023-03-27T09:08:47.005Z,18.63
2023-03-27T09:11:24.117Z,18.69
2023-03-27T09:13:57.290Z,18.79
2023-03-27T09:16:49.297Z,18.70
2023-03-27T09:19:46.346Z,18.45
2023-03-27T09:22:29.068Z,18.47
2023-03-27T09:25:27.572Z,18.40
2023-03-27T09:28:42.659Z,18.45
2023-03-27T09:31:27.710Z,18.42
2023-03-27T09:33:57.982Z,18.34
2023-03-27T09:36:24.832Z,18.20
2023-03-27T09:38:58.711Z,18.03
2023-03-27T09:41:43.759Z,18.23
2023-03-27T09:44:18.020Z,18.38
2023-03-27T09:46:48.983Z,18.30
2023-03-27T09:49:20.970Z,18.28
2023-03-27T09:51:59.483Z,18.10
2023-03-27T09:54:52.878Z,18.25
2023-03-27T09:57:28.542Z,18.37
2023-03-27T09:59:58.776Z,18.39
2023-03-27T10:02:29.529Z,18.22
2023-03-27T10:05:22.149Z,18.22
2023-03-27T10:07:54.279Z,18.18
2023-03-27T10:10:45.812Z,18.08
2023-03-27T10:13:31.270Z,18.38
2023-03-27T10:16:02.003Z,18.14
2023-03-27T10:18:43.451Z,18.15
2023-03-27T10:21:24.225Z,18.09
2023-03-27T10:23:51.599Z,18.25
2023-03-27T10:26:37.071Z,17.86
2023-03-27T10:29:22.235Z,18.08
2023-03-27T10:32:00.499Z,18.38
2023-03-27T10:34:57.361Z,18.57
2023-03-27T10:37:50.300Z,18.72
2023-03-27T10:40:50.112Z,18.66
2023-03-27T10:43:33.737Z,18.60
2023-03-27T10:46:08.888Z,18.68
2023-03-27T10:48:54.830Z,18.73
2023-03-27T10:52:02.055Z,18.82
2023-03-27T10:55:05.253Z,18.75
2023-03-27T10:57:38.139Z,19.00
2023-03-27T11:00:21.177Z,19.01
2023-03-27T11:03:03.681Z,18.96
2023-03-27T11:05:40.137Z,19.14
2023-03-27T11:08:28.045Z,19.09
2023-03-27T11:11:02.351Z,19.01
2023-03-27T11:13:37.038Z,19.08
2023-03-27T11:16:29.062Z,19.06
2023-03-27T11:19:10.799Z,18.76
2023-03-27T11:22:22.286Z,18.70
2023-03-27T11:25:02.936Z,18.82
2023-03-27T11:27:41.213Z,18.99
2023-03-27T11:30:14.568Z,19.11
2023-03-27T11:33:12.625Z,18.92
2023-03-27T11:35:48.722Z,18.74
2023-03-27T11:38:38.726Z,18.74
2023-03-27T11:41:08.131Z,18.54
2023-03-27T11:43:38.235Z,18.66
2023-03-27T11:46:13.479Z,18.86
2023-03-27T11:48:52.590Z,19.04
2023-03-27T11:51:41.818Z,19.09
2023-03-27T11:54:29.825Z,19.28
2023-03-27T11:57:10.835Z,19.07
2023-03-27T12:00:05.250Z,18.71
2023-03-27T12:02:59.685Z,18.73
2023-03-27T12:05:55.291Z,18.94
2023-03-27T12:08:51.137Z,19.06
2023-03-27T12:11:20.555Z,18.97
2023-03-27T12:14:05.502Z,18.58
2023-03-27T12:16:52.773Z,18.54
2023-03-27T12:19:38.234Z,18.54
2023-03-27T12:23:03.516Z,18.67
2023-03-27T12:25:55.650Z,18.88
2023-03-27T12:28:55.945Z,18.81
2023-03-27T12:32:05.353Z,18.89
2023-03-27T12:34:41.096Z,18.77
2023-03-27T12:37:13.352Z,18.85
2023-03-27T12:39:53.616Z,18.80
2023-03-27T12:42:44.077Z,18.66
2023-03-27T12:45:18.280Z,18.80
2023-03-27T12:48:10.067Z,19.09
2023-03-27T12:50:51.691Z,19.23
2023-03-27T12:53:25.537Z,19.02
2023-03-27T12:56:16.377Z,19.03
2023-03-27T12:58:47.873Z,19.02
2023-03-27T13:01:51.744Z,19.17
2023-03-27T13:04:54.981Z,18.87
2023-03-27T13:07:52.778Z,19.12
2023-03-27T13:10:44.631Z,19.05
2023-03-27T13:13:32.520Z,19.08
2023-03-27T13:16:11.969Z,18.97
2023-03-27T13:18:59.026Z,18.80
2023-03-27T13:21:37.864Z,18.71
2023-03-27T13:24:23.762Z,18.51
2023-03-27T13:27:14.265Z,18.53
2023-03-27T13:29:41.706Z,18.60
2023-03-27T13:32:31.032Z,18.93
2023-03-27T13:35:24.860Z,18.89
2023-03-27T13:37:54.047Z,19.02
2023-03-27T13:40:38.772Z,19.14
2023-03-27T13:43:26.128Z,19.15
2023-03-27T13:46:05.404Z,19.01
2023-03-27T13:48:55.734Z,18.91
2023-03-27T13:51:48.230Z,18.85
2023-03-27T13:54:28.006Z,18.98
2023-03-27T13:57:05.542Z,19.18
2023-03-27T13:59:58.446Z,19.10
2023-03-27T14:03:12.615Z,19.29
2023-03-27T14:06:27.918Z,19.32
2023-03-27T14:09:00.186Z,19.05
2023-03-27T14:12:13.047Z,19.03
2023-03-27T14:15:12.845Z,19.13
2023-03-27T14:18:05.317Z,18.97
2023-03-27T14:20:49.188Z,18.88
2023-03-27T14:23:25.741Z,19.04
2023-03-27T14:26:21.501Z,18.92
2023-03-27T14:28:58.867Z,18.69
2023-03-27T14:31:35.460Z,18.72
2023-03-27T14:34:12.249Z,18.59
2023-03-27T14:36:47.585Z,18.50
2023-03-27T14:39:28.454Z,18.55
2023-03-27T14:42:03.620Z,18.76
2023-03-27T14:44:34.366Z,18.82
2023-03-27T14:47:13.632Z,19.00
2023-03-27T14:49:49.297Z,19.07
2023-03-27T14:52:35.272Z,19.12
2023-03-27T14:55:26.983Z,18.74
2023-03-27T14:58:18.631Z,18.93
2023-03-27T15:00:57.952Z,18.93
2023-03-27T15:03:30.923Z,19.01
2023-03-27T15:06:21.168Z,19.13
2023-03-27T15:08:55.997Z,19.19
2023-03-27T15:11:55.531Z,18.92
2023-03-27T15:14:30.433Z,19.04
2023-03-27T15:17:03.078Z,19.08
2023-03-27T15:19:45.431Z,19.18
2023-03-27T15:22:31.439Z,19.27
2023-03-27T15:25:28.762Z,19.10
2023-03-27T15:27:59.027Z,19.26
2023-03-27T15:30:33.985Z,19.37
2023-03-27T15:33:02.318Z,19.09
2023-03-27T15:35:36.096Z,19.03
2023-03-27T15:38:06.369Z,19.07
2023-03-27T15:40:40.249Z,19.13
2023-03-27T15:43:08.997Z,19.23
2023-03-27T15:45:58.321Z,19.29
2023-03-27T15:48:32.353Z,19.24
2023-03-27T15:51:09.619Z,19.02
2023-03-27T15:53:42.528Z,19.04
2023-03-27T15:56:48.145Z,19.19
2023-03-27T15:59:16.519Z,18.86
2023-03-27T16:01:53.710Z,19.07
2023-03-27T16:04:25.775Z,19.09
2023-03-27T16:07:24.811Z,19.28
2023-03-27T16:10:02.495Z,19.38
2023-03-27T16:12:47.985Z,19.23
2023-03-27T16:15:36.553Z,19.03
2023-03-27T16:18:29.978Z,19.09
2023-03-27T16:21:13.196Z,19.36
2023-03-27T16:23:40.790Z,19.40
2023-03-27T16:26:12.656Z,19.10
2023-03-27T16:28:41.001Z,19.33
2023-03-27T16:31:16.586Z,19.24
2023-03-27T16:33:45.294Z,19.12
2023-03-27T16:36:15.266Z,19.16
2023-03-27T16:38:43.765Z,19.20
2023-03-27T16:41:13.358Z,19.11
2023-03-27T16:43:40.536Z,18.80
2023-03-27T16:46:16.962Z,19.04
2023-03-27T16:48:43.810Z,19.10
2023-03-27T16:51:13.217Z,18.92
2023-03-27T16:53:39.914Z,19.05
2023-03-27T16:56:07.240Z,19.11
2023-03-27T16:58:34.017Z,19.27
2023-03-27T17:01:01.061Z,19.14
2023-03-27T17:03:27.881Z,18.91
2023-03-27T17:06:00.000Z,18.90
2023-03-27T17:08:27.329Z,18.64
2023-03-27T17:10:54.045Z,18.95
2023-03-27T17:13:21.247Z,19.00
2023-03-27T17:15:50.192Z,18.82
2023-03-27T17:18:16.994Z,18.79
2023-03-27T17:20:43.913Z,18.45
2023-03-27T17:23:11.893Z,18.41
2023-03-27T17:25:38.573Z,18.41
2023-03-27T17:28:07.103Z,18.23
2023-03-27T17:30:39.754Z,18.36
2023-03-27T17:33:12.904Z,18.27
2023-03-27T17:35:40.815Z,17.92
2023-03-27T17:38:08.926Z,17.99
2023-03-27T17:40:39.525Z,17.93
2023-03-27T17:43:06.549Z,17.79
2023-03-27T17:45:33.338Z,17.86
2023-03-27T17:48:00.257Z,17.84
2023-03-27T17:50:27.060Z,17.73
2023-03-27T17:52:53.859Z,17.62
2023-03-27T17:55:20.649Z,17.57
2023-03-27T17:57:53.114Z,17.54
2023-03-27T18:00:26.072Z,17.53
2023-03-27T18:02:52.953Z,17.39
2023-03-27T18:05:22.870Z,17.43
2023-03-27T18:07:49.632Z,17.34
2023-03-27T18:10:21.204Z,17.21
2023-03-27T18:12:48.300Z,17.11
2023-03-27T18:15:15.238Z,16.99
2023-03-27T18:17:41.993Z,17.06
2023-03-27T18:20:10.280Z,17.02
2023-03-27T18:22:38.296Z,17.08
2023-03-27T18:25:06.817Z,16.99
2023-03-27T18:27:33.590Z,16.90
2023-03-27T18:30:01.593Z,16.99
2023-03-27T18:32:28.451Z,17.15
2023-03-27T18:34:55.519Z,17.24
2023-03-27T18:37:22.414Z,17.23
2023-03-27T18:39:49.121Z,17.32
2023-03-27T18:42:15.845Z,17.04
2023-03-27T18:44:42.641Z,17.28
2023-03-27T18:47:09.401Z,17.22
2023-03-27T18:49:37.787Z,17.22
2023-03-27T18:52:04.888Z,17.24
2023-03-27T18:54:31.708Z,17.14
2023-03-27T18:56:58.488Z,17.15
2023-03-27T18:59:25.478Z,17.11
2023-03-27T19:01:52.423Z,17.06
2023-03-27T19:04:19.288Z,17.03
2023-03-27T19:06:46.820Z,16.87
2023-03-27T19:09:14.451Z,16.96
2023-03-27T19:11:41.706Z,16.92
2023-03-27T19:14:27.930Z,16.82
2023-03-27T19:17:21.139Z,16.75
2023-03-27T19:20:10.984Z,16.78
2023-03-27T19:22:50.473Z,16.78
2023-03-27T19:25:27.666Z,16.75
2023-03-27T19:27:54.689Z,16.76
2023-03-27T19:30:21.629Z,16.80
2023-03-27T19:32:50.218Z,16.76
2023-03-27T19:35:17.207Z,16.77
2023-03-27T19:37:44.075Z,16.55
2023-03-27T19:40:11.482Z,16.58
2023-03-27T19:42:38.316Z,16.57
2023-03-27T19:45:05.821Z,16.55
2023-03-27T19:47:32.719Z,16.51
2023-03-27T19:49:59.685Z,16.54
2023-03-27T19:52:32.942Z,16.59
2023-03-27T19:54:59.692Z,16.57
2023-03-27T19:57:26.685Z,16.57
2023-03-27T19:59:53.503Z,16.38
2023-03-27T20:02:20.953Z,16.35
2023-03-27T20:04:49.131Z,16.41
2023-03-27T20:07:15.925Z,16.38
2023-03-27T20:09:42.650Z,16.37
2023-03-27T20:12:11.282Z,16.42
2023-03-27T20:14:38.145Z,16.39
2023-03-27T20:17:07.933Z,16.38
2023-03-27T20:19:46.212Z,16.37
2023-03-27T20:22:13.002Z,16.40
2023-03-27T20:24:40.312Z,16.32
2023-03-27T20:27:07.199Z,16.41
2023-03-27T20:29:34.002Z,16.39
2023-03-27T20:32:00.866Z,16.40
2023-03-27T20:34:27.755Z,16.30
2023-03-27T20:36:54.837Z,16.29
2023-03-27T20:39:49.932Z,16.28
2023-03-27T20:42:23.107Z,16.23
2023-03-27T20:44:58.319Z,16.27
2023-03-27T20:47:25.394Z,16.26
2023-03-27T20:49:52.201Z,16.30
2023-03-27T20:52:19.664Z,16.23
2023-03-27T20:54:47.934Z,16.25
2023-03-27T20:57:17.017Z,16.18
2023-03-27T20:59:46.169Z,16.16
2023-03-27T21:02:17.689Z,16.17
2023-03-27T21:04:46.759Z,16.15
2023-03-27T21:07:15.982Z,16.17
2023-03-27T21:09:45.338Z,16.06
2023-03-27T21:12:12.254Z,16.06
2023-03-27T21:14:39.251Z,16.12
2023-03-27T21:17:06.018Z,16.19
2023-03-27T21:19:32.883Z,16.19
2023-03-27T21:21:59.664Z,16.22
2023-03-27T21:24:27.093Z,16.25
2023-03-27T21:26:53.944Z,16.21
2023-03-27T21:29:20.982Z,16.27
2023-03-27T21:31:47.865Z,16.27
2023-03-27T21:34:14.653Z,16.30
2023-03-27T21:36:41.890Z,16.24
2023-03-27T21:39:10.019Z,16.27
2023-03-27T21:41:36.918Z,16.25
2023-03-27T21:44:03.780Z,16.24
2023-03-27T21:46:30.720Z,16.24
2023-03-27T21:48:57.467Z,16.23
2023-03-27T21:51:24.263Z,16.25
2023-03-27T21:53:51.080Z,16.21
2023-03-27T21:56:17.798Z,16.26
2023-03-27T21:58:44.502Z,16.25
2023-03-27T22:01:12.263Z,16.23
2023-03-27T22:03:39.099Z,16.24
2023-03-27T22:06:12.419Z,16.25
2023-03-27T22:08:41.526Z,16.24
2023-03-27T22:11:09.214Z,16.25
2023-03-27T22:13:37.300Z,16.23
2023-03-27T22:16:18.052Z,16.20
2023-03-27T22:18:45.107Z,16.21
2023-03-27T22:21:23.843Z,16.22
2023-03-27T22:23:51.938Z,16.24
2023-03-27T22:26:20.468Z,16.21
2023-03-27T22:28:47.431Z,16.23
2023-03-27T22:31:14.540Z,16.21
2023-03-27T22:33:41.688Z,16.24
2023-03-27T22:36:11.071Z,16.23
2023-03-27T22:38:38.333Z,16.23
2023-03-27T22:41:06.953Z,16.18
2023-03-27T22:43:33.766Z,16.17
2023-03-27T22:46:16.532Z,16.18
2023-03-27T22:48:43.723Z,16.16
2023-03-27T22:51:12.240Z,16.12
2023-03-27T22:53:39.742Z,16.15
2023-03-27T22:56:07.579Z,16.14
2023-03-27T22:58:34.462Z,16.13
2023-03-27T23:01:01.505Z,16.13
2023-03-27T23:03:28.508Z,16.10
2023-03-27T23:05:55.884Z,16.10
2023-03-27T23:08:24.638Z,16.07
2023-03-27T23:11:02.644Z,16.08
2023-03-27T23:13:31.346Z,16.10
2023-03-27T23:15:58.737Z,16.10
2023-03-27T23:18:25.990Z,16.09
2023-03-27T23:20:58.360Z,16.08
2023-03-27T23:23:26.724Z,16.06
2023-03-27T23:25:54.615Z,16.06
2023-03-27T23:28:22.113Z,16.05
2023-03-27T23:31:03.377Z,16.03
2023-03-27T23:33:35.367Z,15.99
2023-03-27T23:36:03.963Z,15.99
2023-03-27T23:38:30.809Z,15.94
2023-03-27T23:40:59.001Z,15.91
2023-03-27T23:43:27.726Z,15.88
2023-03-27T23:45:55.951Z,15.83
2023-03-27T23:48:23.494Z,15.83
2023-03-27T23:50:51.896Z,15.75
2023-03-27T23:53:20.816Z,15.74
2023-03-27T23:55:48.020Z,15.66
2023-03-27T23:58:15.230Z,15.62
